Huvudsida
METAR-TAF:

METAR-TAF

Flygplatser :

Bagdads internationella flygplats

Bagdad, Irak

latitud: 33-15-45N, longitud: 44-14-04E, höjd: 35 m

Aktuellt väderrapport

Denna rapport gjordes för 1 timme och 5 minuter sedan, klockan 03:00 UTC
Vind 6 kt från nordväst
Temperatur 7°C
Fuktighet 53%
Tryck 1018 hPa
Sikt 10 km eller mer
Inga moln under 1 500 m eller inga cumulonimbus

METAR: ORBI 200300Z 32006KT CAVOK 07/M02 Q1018 NOSIG

Tid: 07:05 (04:05 UTC)

Väderprognos

Denna rapport gjordes för 6 timmar och 5 minuter sedan, klockan 22:00 UTC
Prognos gäller från 20 kl. 00 UTC till 20 kl. 24 UTC
Vind 8 kt från nordväst
Sikt 10 km eller mer
Inga moln under 1 500 m eller inga cumulonimbus

TAF: ORBI 192200Z 2000/2024 32008KT CAVOK

Aktuella väderrapporter och prognoser från 4000 flygplatser (METAR- och TAF-rapporter).

De tillgängliga stationerna syns som gula och röda prickar på kartan.

För musen över prickarna för att se namnen på stationerna.

Klicka sedan för att få väderrapporter och prognoser.

För att ändra kartan: Klicka på de gröna knapparna med ett svart kors på för att zooma in; den gröna knappen med ett streck på för att zooma ut; eller på de gröna pilarna för angränsande kartor.


METAR-TAF: